sensor_id;sensor_type;location;lat;lon;timestamp;temperature;humidity
2363;DHT22;64265;51.664;7.626;2023-05-14T00:00:51;23.00;78.90
2363;DHT22;64265;51.664;7.626;2023-05-14T00:03:18;23.00;79.10
2363;DHT22;64265;51.664;7.626;2023-05-14T00:05:45;23.00;79.30
2363;DHT22;64265;51.664;7.626;2023-05-14T00:08:11;23.00;79.40
2363;DHT22;64265;51.664;7.626;2023-05-14T00:10:38;23.00;79.50
2363;DHT22;64265;51.664;7.626;2023-05-14T00:13:05;23.00;79.50
2363;DHT22;64265;51.664;7.626;2023-05-14T00:15:33;23.00;79.60
2363;DHT22;64265;51.664;7.626;2023-05-14T00:17:59;23.00;79.60
2363;DHT22;64265;51.664;7.626;2023-05-14T00:20:26;23.00;79.70
2363;DHT22;64265;51.664;7.626;2023-05-14T00:22:53;23.00;79.70
2363;DHT22;64265;51.664;7.626;2023-05-14T00:25:19;22.90;79.70
2363;DHT22;64265;51.664;7.626;2023-05-14T00:27:46;22.90;79.70
2363;DHT22;64265;51.664;7.626;2023-05-14T00:30:13;22.90;79.80
2363;DHT22;64265;51.664;7.626;2023-05-14T00:32:41;22.90;79.80
2363;DHT22;64265;51.664;7.626;2023-05-14T00:35:08;22.90;79.80
2363;DHT22;64265;51.664;7.626;2023-05-14T00:37:34;22.90;80.00
2363;DHT22;64265;51.664;7.626;2023-05-14T00:40:03;22.90;80.00
2363;DHT22;64265;51.664;7.626;2023-05-14T00:42:31;22.90;80.10
2363;DHT22;64265;51.664;7.626;2023-05-14T00:44:57;22.90;80.10
2363;DHT22;64265;51.664;7.626;2023-05-14T00:47:24;22.90;80.10
2363;DHT22;64265;51.664;7.626;2023-05-14T00:49:52;22.90;80.20
2363;DHT22;64265;51.664;7.626;2023-05-14T00:52:19;22.90;80.20
2363;DHT22;64265;51.664;7.626;2023-05-14T00:54:47;22.90;80.30
2363;DHT22;64265;51.664;7.626;2023-05-14T00:57:14;22.90;80.40
2363;DHT22;64265;51.664;7.626;2023-05-14T00:59:41;22.80;80.30
2363;DHT22;64265;51.664;7.626;2023-05-14T01:02:07;22.80;80.40
2363;DHT22;64265;51.664;7.626;2023-05-14T01:04:34;22.80;80.50
2363;DHT22;64265;51.664;7.626;2023-05-14T01:07:08;22.80;80.50
2363;DHT22;64265;51.664;7.626;2023-05-14T01:09:42;22.80;80.60
2363;DHT22;64265;51.664;7.626;2023-05-14T01:12:16;22.80;80.70
2363;DHT22;64265;51.664;7.626;2023-05-14T01:14:53;22.80;80.60
2363;DHT22;64265;51.664;7.626;2023-05-14T01:17:21;22.80;80.70
2363;DHT22;64265;51.664;7.626;2023-05-14T01:19:49;22.80;80.90
2363;DHT22;64265;51.664;7.626;2023-05-14T01:22:18;22.80;80.90
2363;DHT22;64265;51.664;7.626;2023-05-14T01:24:44;22.70;80.90
2363;DHT22;64265;51.664;7.626;2023-05-14T01:27:15;22.70;81.00
2363;DHT22;64265;51.664;7.626;2023-05-14T01:29:48;22.70;81.00
2363;DHT22;64265;51.664;7.626;2023-05-14T01:32:17;22.70;81.00
2363;DHT22;64265;51.664;7.626;2023-05-14T01:34:47;22.70;81.10
2363;DHT22;64265;51.664;7.626;2023-05-14T01:37:15;22.70;81.10
2363;DHT22;64265;51.664;7.626;2023-05-14T01:39:44;22.70;81.10
2363;DHT22;64265;51.664;7.626;2023-05-14T01:42:11;22.70;81.10
2363;DHT22;64265;51.664;7.626;2023-05-14T01:44:38;22.70;81.20
2363;DHT22;64265;51.664;7.626;2023-05-14T01:47:05;22.70;81.20
2363;DHT22;64265;51.664;7.626;2023-05-14T01:49:32;22.70;81.30
2363;DHT22;64265;51.664;7.626;2023-05-14T01:51:58;22.60;81.20
2363;DHT22;64265;51.664;7.626;2023-05-14T01:54:25;22.70;81.40
2363;DHT22;64265;51.664;7.626;2023-05-14T01:56:53;22.60;81.20
2363;DHT22;64265;51.664;7.626;2023-05-14T01:59:20;22.60;81.30
2363;DHT22;64265;51.664;7.626;2023-05-14T02:01:46;22.60;81.40
2363;DHT22;64265;51.664;7.626;2023-05-14T02:04:13;22.60;81.40
2363;DHT22;64265;51.664;7.626;2023-05-14T02:06:39;22.60;81.40
2363;DHT22;64265;51.664;7.626;2023-05-14T02:09:06;22.60;81.50
2363;DHT22;64265;51.664;7.626;2023-05-14T02:11:33;22.60;81.50
2363;DHT22;64265;51.664;7.626;2023-05-14T02:14:01;22.60;81.60
2363;DHT22;64265;51.664;7.626;2023-05-14T02:16:27;22.60;81.50
2363;DHT22;64265;51.664;7.626;2023-05-14T02:18:54;22.60;81.60
2363;DHT22;64265;51.664;7.626;2023-05-14T02:21:21;22.60;81.60
2363;DHT22;64265;51.664;7.626;2023-05-14T02:23:47;22.50;81.60
2363;DHT22;64265;51.664;7.626;2023-05-14T02:26:14;22.50;82.00
2363;DHT22;64265;51.664;7.626;2023-05-14T02:28:41;22.50;81.50
2363;DHT22;64265;51.664;7.626;2023-05-14T02:31:09;22.50;81.40
2363;DHT22;64265;51.664;7.626;2023-05-14T02:33:35;22.50;81.80
2363;DHT22;64265;51.664;7.626;2023-05-14T02:36:02;22.50;81.70
2363;DHT22;64265;51.664;7.626;2023-05-14T02:38:29;22.50;81.70
2363;DHT22;64265;51.664;7.626;2023-05-14T02:40:55;22.50;81.80
2363;DHT22;64265;51.664;7.626;2023-05-14T02:43:22;22.50;81.90
2363;DHT22;64265;51.664;7.626;2023-05-14T02:45:49;22.50;82.00
2363;DHT22;64265;51.664;7.626;2023-05-14T02:48:17;22.40;81.80
2363;DHT22;64265;51.664;7.626;2023-05-14T02:50:43;22.40;81.90
2363;DHT22;64265;51.664;7.626;2023-05-14T02:53:10;22.40;82.00
2363;DHT22;64265;51.664;7.626;2023-05-14T02:55:37;22.40;82.00
2363;DHT22;64265;51.664;7.626;2023-05-14T02:58:03;22.40;82.10
2363;DHT22;64265;51.664;7.626;2023-05-14T03:00:30;22.40;82.20
2363;DHT22;64265;51.664;7.626;2023-05-14T03:02:56;22.40;82.20
2363;DHT22;64265;51.664;7.626;2023-05-14T03:05:25;22.40;82.20
2363;DHT22;64265;51.664;7.626;2023-05-14T03:07:51;22.40;82.20
2363;DHT22;64265;51.664;7.626;2023-05-14T03:10:19;22.40;82.30
2363;DHT22;64265;51.664;7.626;2023-05-14T03:12:46;22.40;82.50
2363;DHT22;64265;51.664;7.626;2023-05-14T03:15:12;22.40;82.50
2363;DHT22;64265;51.664;7.626;2023-05-14T03:17:39;22.30;82.40
2363;DHT22;64265;51.664;7.626;2023-05-14T03:20:06;22.30;82.40
2363;DHT22;64265;51.664;7.626;2023-05-14T03:22:34;22.30;82.50
2363;DHT22;64265;51.664;7.626;2023-05-14T03:25:01;22.30;82.60
2363;DHT22;64265;51.664;7.626;2023-05-14T03:27:28;22.30;82.70
2363;DHT22;64265;51.664;7.626;2023-05-14T03:29:54;22.30;82.60
2363;DHT22;64265;51.664;7.626;2023-05-14T03:32:21;22.30;82.80
2363;DHT22;64265;51.664;7.626;2023-05-14T03:34:48;22.30;82.80
2363;DHT22;64265;51.664;7.626;2023-05-14T03:37:15;22.30;83.60
2363;DHT22;64265;51.664;7.626;2023-05-14T03:39:43;22.30;82.90
2363;DHT22;64265;51.664;7.626;2023-05-14T03:42:09;22.30;82.90
2363;DHT22;64265;51.664;7.626;2023-05-14T03:44:36;22.30;83.00
2363;DHT22;64265;51.664;7.626;2023-05-14T03:47:03;22.30;83.10
2363;DHT22;64265;51.664;7.626;2023-05-14T03:49:30;22.30;83.20
2363;DHT22;64265;51.664;7.626;2023-05-14T03:51:56;22.30;83.20
2363;DHT22;64265;51.664;7.626;2023-05-14T03:54:23;22.30;83.20
2363;DHT22;64265;51.664;7.626;2023-05-14T03:56:51;22.30;83.30
2363;DHT22;64265;51.664;7.626;2023-05-14T03:59:18;22.20;83.30
2363;DHT22;64265;51.664;7.626;2023-05-14T04:01:44;22.20;83.40
2363;DHT22;64265;51.664;7.626;2023-05-14T04:04:11;22.20;83.40
2363;DHT22;64265;51.664;7.626;2023-05-14T04:06:38;22.20;83.40
2363;DHT22;64265;51.664;7.626;2023-05-14T04:09:04;22.20;83.40
2363;DHT22;64265;51.664;7.626;2023-05-14T04:11:31;22.20;83.50
2363;DHT22;64265;51.664;7.626;2023-05-14T04:13:59;22.20;83.60
2363;DHT22;64265;51.664;7.626;2023-05-14T04:16:26;22.20;83.70
2363;DHT22;64265;51.664;7.626;2023-05-14T04:18:52;22.20;83.60
2363;DHT22;64265;51.664;7.626;2023-05-14T04:21:19;22.20;83.80
2363;DHT22;64265;51.664;7.626;2023-05-14T04:23:46;22.20;83.80
2363;DHT22;64265;51.664;7.626;2023-05-14T04:26:12;22.20;84.00
2363;DHT22;64265;51.664;7.626;2023-05-14T04:28:39;22.20;84.00
2363;DHT22;64265;51.664;7.626;2023-05-14T04:31:07;22.20;84.00
2363;DHT22;64265;51.664;7.626;2023-05-14T04:33:33;22.20;83.90
2363;DHT22;64265;51.664;7.626;2023-05-14T04:36:00;22.20;84.10
2363;DHT22;64265;51.664;7.626;2023-05-14T04:38:27;22.20;84.10
2363;DHT22;64265;51.664;7.626;2023-05-14T04:40:53;22.20;84.20
2363;DHT22;64265;51.664;7.626;2023-05-14T04:43:20;22.10;84.20
2363;DHT22;64265;51.664;7.626;2023-05-14T04:45:47;22.10;84.30
2363;DHT22;64265;51.664;7.626;2023-05-14T04:48:15;22.10;84.20
2363;DHT22;64265;51.664;7.626;2023-05-14T04:50:41;22.10;84.20
2363;DHT22;64265;51.664;7.626;2023-05-14T04:53:08;22.10;84.30
2363;DHT22;64265;51.664;7.626;2023-05-14T04:55:35;22.10;84.40
2363;DHT22;64265;51.664;7.626;2023-05-14T04:58:02;22.10;84.40
2363;DHT22;64265;51.664;7.626;2023-05-14T05:00:28;22.10;84.40
2363;DHT22;64265;51.664;7.626;2023-05-14T05:02:55;22.10;84.50
2363;DHT22;64265;51.664;7.626;2023-05-14T05:05:23;22.00;84.50
2363;DHT22;64265;51.664;7.626;2023-05-14T05:07:50;22.10;84.60
2363;DHT22;64265;51.664;7.626;2023-05-14T05:10:16;22.10;84.70
2363;DHT22;64265;51.664;7.626;2023-05-14T05:12:43;22.10;84.70
2363;DHT22;64265;51.664;7.626;2023-05-14T05:15:10;22.10;84.80
2363;DHT22;64265;51.664;7.626;2023-05-14T05:17:37;22.10;84.90
2363;DHT22;64265;51.664;7.626;2023-05-14T05:20:04;22.00;84.80
2363;DHT22;64265;51.664;7.626;2023-05-14T05:22:35;22.10;85.00
2363;DHT22;64265;51.664;7.626;2023-05-14T05:25:02;22.10;85.40
2363;DHT22;64265;51.664;7.626;2023-05-14T05:27:30;22.10;85.40
2363;DHT22;64265;51.664;7.626;2023-05-14T05:29:57;22.10;85.50
2363;DHT22;64265;51.664;7.626;2023-05-14T05:32:24;22.20;85.70
2363;DHT22;64265;51.664;7.626;2023-05-14T05:34:50;22.10;85.60
2363;DHT22;64265;51.664;7.626;2023-05-14T05:37:17;22.20;85.80
2363;DHT22;64265;51.664;7.626;2023-05-14T05:39:45;22.20;85.10
2363;DHT22;64265;51.664;7.626;2023-05-14T05:42:12;22.20;84.30
2363;DHT22;64265;51.664;7.626;2023-05-14T05:44:39;22.20;84.70
2363;DHT22;64265;51.664;7.626;2023-05-14T05:47:06;22.20;85.00
2363;DHT22;64265;51.664;7.626;2023-05-14T05:49:32;22.20;85.10
2363;DHT22;64265;51.664;7.626;2023-05-14T05:52:01;22.20;85.10
2363;DHT22;64265;51.664;7.626;2023-05-14T05:54:29;22.30;85.40
2363;DHT22;64265;51.664;7.626;2023-05-14T05:56:58;22.30;85.20
2363;DHT22;64265;51.664;7.626;2023-05-14T05:59:25;22.30;85.20
2363;DHT22;64265;51.664;7.626;2023-05-14T06:01:52;22.30;85.20
2363;DHT22;64265;51.664;7.626;2023-05-14T06:04:18;22.30;85.20
2363;DHT22;64265;51.664;7.626;2023-05-14T06:06:45;22.30;85.20
2363;DHT22;64265;51.664;7.626;2023-05-14T06:09:12;22.30;85.10
2363;DHT22;64265;51.664;7.626;2023-05-14T06:11:38;22.30;85.20
2363;DHT22;64265;51.664;7.626;2023-05-14T06:14:06;22.40;85.30
2363;DHT22;64265;51.664;7.626;2023-05-14T06:16:33;22.40;85.30
2363;DHT22;64265;51.664;7.626;2023-05-14T06:19:00;22.40;85.20
2363;DHT22;64265;51.664;7.626;2023-05-14T06:21:26;22.40;85.10
2363;DHT22;64265;51.664;7.626;2023-05-14T06:23:53;22.40;85.10
2363;DHT22;64265;51.664;7.626;2023-05-14T06:26:20;22.40;85.00
2363;DHT22;64265;51.664;7.626;2023-05-14T06:28:46;22.40;85.10
2363;DHT22;64265;51.664;7.626;2023-05-14T06:31:14;22.40;85.00
2363;DHT22;64265;51.664;7.626;2023-05-14T06:33:41;22.40;85.10
2363;DHT22;64265;51.664;7.626;2023-05-14T06:36:08;22.40;85.00
2363;DHT22;64265;51.664;7.626;2023-05-14T06:38:35;22.40;85.00
2363;DHT22;64265;51.664;7.626;2023-05-14T06:41:02;22.40;85.00
2363;DHT22;64265;51.664;7.626;2023-05-14T06:43:28;22.40;85.00
2363;DHT22;64265;51.664;7.626;2023-05-14T06:45:55;22.40;85.00
2363;DHT22;64265;51.664;7.626;2023-05-14T06:48:23;22.40;84.90
2363;DHT22;64265;51.664;7.626;2023-05-14T06:50:52;22.40;85.00
2363;DHT22;64265;51.664;7.626;2023-05-14T06:53:18;22.40;85.10
2363;DHT22;64265;51.664;7.626;2023-05-14T06:55:46;22.40;85.00
2363;DHT22;64265;51.664;7.626;2023-05-14T06:58:13;22.40;85.10
2363;DHT22;64265;51.664;7.626;2023-05-14T07:00:39;22.40;85.00
2363;DHT22;64265;51.664;7.626;2023-05-14T07:03:06;22.40;85.00
2363;DHT22;64265;51.664;7.626;2023-05-14T07:05:34;22.40;85.10
2363;DHT22;64265;51.664;7.626;2023-05-14T07:08:01;22.40;85.10
2363;DHT22;64265;51.664;7.626;2023-05-14T07:10:27;22.40;85.20
2363;DHT22;64265;51.664;7.626;2023-05-14T07:12:55;22.40;85.30
2363;DHT22;64265;51.664;7.626;2023-05-14T07:15:21;22.40;85.30
2363;DHT22;64265;51.664;7.626;2023-05-14T07:17:48;22.40;85.40
2363;DHT22;64265;51.664;7.626;2023-05-14T07:20:15;22.40;85.40
2363;DHT22;64265;51.664;7.626;2023-05-14T07:22:43;22.40;85.80
2363;DHT22;64265;51.664;7.626;2023-05-14T07:25:09;22.50;86.00
2363;DHT22;64265;51.664;7.626;2023-05-14T07:27:36;22.50;86.70
2363;DHT22;64265;51.664;7.626;2023-05-14T07:30:03;22.40;85.10
2363;DHT22;64265;51.664;7.626;2023-05-14T07:32:30;22.40;84.60
2363;DHT22;64265;51.664;7.626;2023-05-14T07:34:56;22.40;84.40
2363;DHT22;64265;51.664;7.626;2023-05-14T07:37:23;22.30;84.80
2363;DHT22;64265;51.664;7.626;2023-05-14T07:39:52;22.30;84.00
2363;DHT22;64265;51.664;7.626;2023-05-14T07:42:19;22.30;84.00
2363;DHT22;64265;51.664;7.626;2023-05-14T07:44:45;22.20;84.00
2363;DHT22;64265;51.664;7.626;2023-05-14T07:47:12;22.20;84.00
2363;DHT22;64265;51.664;7.626;2023-05-14T07:49:39;22.20;84.00
2363;DHT22;64265;51.664;7.626;2023-05-14T07:52:05;22.20;84.10
2363;DHT22;64265;51.664;7.626;2023-05-14T07:54:32;22.20;84.30
2363;DHT22;64265;51.664;7.626;2023-05-14T07:57:00;22.20;84.50
2363;DHT22;64265;51.664;7.626;2023-05-14T07:59:27;22.20;84.30
2363;DHT22;64265;51.664;7.626;2023-05-14T08:01:53;22.20;84.50
2363;DHT22;64265;51.664;7.626;2023-05-14T08:04:20;22.20;84.70
2363;DHT22;64265;51.664;7.626;2023-05-14T08:06:47;22.20;84.50
2363;DHT22;64265;51.664;7.626;2023-05-14T08:09:14;22.20;84.30
2363;DHT22;64265;51.664;7.626;2023-05-14T08:11:41;22.20;84.20
2363;DHT22;64265;51.664;7.626;2023-05-14T08:14:09;22.20;84.10
2363;DHT22;64265;51.664;7.626;2023-05-14T08:16:36;22.20;84.10
2363;DHT22;64265;51.664;7.626;2023-05-14T08:19:03;22.20;84.10
2363;DHT22;64265;51.664;7.626;2023-05-14T08:21:29;22.20;83.90
2363;DHT22;64265;51.664;7.626;2023-05-14T08:23:57;22.20;84.00
2363;DHT22;64265;51.664;7.626;2023-05-14T08:26:23;22.20;83.90
2363;DHT22;64265;51.664;7.626;2023-05-14T08:28:51;22.20;83.70
2363;DHT22;64265;51.664;7.626;2023-05-14T08:31:19;22.20;83.60
2363;DHT22;64265;51.664;7.626;2023-05-14T08:33:46;22.20;83.50
2363;DHT22;64265;51.664;7.626;2023-05-14T08:36:12;22.20;84.20
2363;DHT22;64265;51.664;7.626;2023-05-14T08:38:39;22.20;83.40
2363;DHT22;64265;51.664;7.626;2023-05-14T08:41:07;22.20;83.40
2363;DHT22;64265;51.664;7.626;2023-05-14T08:43:43;22.20;83.40
2363;DHT22;64265;51.664;7.626;2023-05-14T08:46:12;22.20;83.40
2363;DHT22;64265;51.664;7.626;2023-05-14T08:48:41;22.30;84.30
2363;DHT22;64265;51.664;7.626;2023-05-14T08:51:08;22.30;84.60
2363;DHT22;64265;51.664;7.626;2023-05-14T08:53:35;22.30;84.70
2363;DHT22;64265;51.664;7.626;2023-05-14T08:56:06;22.30;84.80
2363;DHT22;64265;51.664;7.626;2023-05-14T08:58:33;22.30;84.90
2363;DHT22;64265;51.664;7.626;2023-05-14T09:01:00;22.20;84.90
2363;DHT22;64265;51.664;7.626;2023-05-14T09:03:26;22.30;85.80
2363;DHT22;64265;51.664;7.626;2023-05-14T09:05:56;22.30;85.80
2363;DHT22;64265;51.664;7.626;2023-05-14T09:08:23;22.30;85.10
2363;DHT22;64265;51.664;7.626;2023-05-14T09:10:50;22.30;85.00
2363;DHT22;64265;51.664;7.626;2023-05-14T09:13:16;22.30;85.00
2363;DHT22;64265;51.664;7.626;2023-05-14T09:15:44;22.30;85.00
2363;DHT22;64265;51.664;7.626;2023-05-14T09:18:11;22.30;85.00
2363;DHT22;64265;51.664;7.626;2023-05-14T09:20:38;22.20;84.80
2363;DHT22;64265;51.664;7.626;2023-05-14T09:23:06;22.30;84.90
2363;DHT22;64265;51.664;7.626;2023-05-14T09:25:33;22.30;85.00
2363;DHT22;64265;51.664;7.626;2023-05-14T09:28:04;22.30;85.00
2363;DHT22;64265;51.664;7.626;2023-05-14T09:30:32;22.30;85.00
2363;DHT22;64265;51.664;7.626;2023-05-14T09:32:59;22.30;84.90
2363;DHT22;64265;51.664;7.626;2023-05-14T09:35:26;22.30;84.90
2363;DHT22;64265;51.664;7.626;2023-05-14T09:37:53;22.30;84.80
2363;DHT22;64265;51.664;7.626;2023-05-14T09:40:22;22.30;84.80
2363;DHT22;64265;51.664;7.626;2023-05-14T09:42:49;22.30;84.60
2363;DHT22;64265;51.664;7.626;2023-05-14T09:45:16;22.30;84.70
2363;DHT22;64265;51.664;7.626;2023-05-14T09:47:43;22.30;84.90
2363;DHT22;64265;51.664;7.626;2023-05-14T09:50:10;22.30;85.00
2363;DHT22;64265;51.664;7.626;2023-05-14T09:52:37;22.30;85.00
2363;DHT22;64265;51.664;7.626;2023-05-14T09:55:04;22.30;85.10
2363;DHT22;64265;51.664;7.626;2023-05-14T09:57:33;22.30;85.30
2363;DHT22;64265;51.664;7.626;2023-05-14T09:59:59;22.40;85.30
2363;DHT22;64265;51.664;7.626;2023-05-14T10:02:30;22.30;84.90
2363;DHT22;64265;51.664;7.626;2023-05-14T10:05:03;22.30;84.90
2363;DHT22;64265;51.664;7.626;2023-05-14T10:07:34;22.30;85.00
2363;DHT22;64265;51.664;7.626;2023-05-14T10:10:02;22.30;85.00
2363;DHT22;64265;51.664;7.626;2023-05-14T10:12:36;22.30;85.00
2363;DHT22;64265;51.664;7.626;2023-05-14T10:15:09;22.30;85.00
2363;DHT22;64265;51.664;7.626;2023-05-14T10:17:40;22.30;84.60
2363;DHT22;64265;51.664;7.626;2023-05-14T10:20:14;22.30;84.30
2363;DHT22;64265;51.664;7.626;2023-05-14T10:22:42;22.30;83.90
2363;DHT22;64265;51.664;7.626;2023-05-14T10:25:09;22.30;83.50
2363;DHT22;64265;51.664;7.626;2023-05-14T10:27:38;22.30;82.80
2363;DHT22;64265;51.664;7.626;2023-05-14T10:30:09;22.30;82.40
2363;DHT22;64265;51.664;7.626;2023-05-14T10:32:37;22.30;82.80
2363;DHT22;64265;51.664;7.626;2023-05-14T10:35:15;22.20;83.00
2363;DHT22;64265;51.664;7.626;2023-05-14T10:37:43;22.30;83.40
2363;DHT22;64265;51.664;7.626;2023-05-14T10:40:11;22.30;83.60
2363;DHT22;64265;51.664;7.626;2023-05-14T10:42:40;22.30;83.60
2363;DHT22;64265;51.664;7.626;2023-05-14T10:45:09;22.30;83.90
2363;DHT22;64265;51.664;7.626;2023-05-14T10:47:37;22.30;83.70
2363;DHT22;64265;51.664;7.626;2023-05-14T10:50:05;22.30;84.00
2363;DHT22;64265;51.664;7.626;2023-05-14T10:52:33;22.30;84.00
2363;DHT22;64265;51.664;7.626;2023-05-14T10:55:02;22.30;83.90
2363;DHT22;64265;51.664;7.626;2023-05-14T10:57:33;22.30;83.80
2363;DHT22;64265;51.664;7.626;2023-05-14T11:00:03;22.30;83.90
2363;DHT22;64265;51.664;7.626;2023-05-14T11:02:33;22.30;83.90
2363;DHT22;64265;51.664;7.626;2023-05-14T11:05:02;22.30;83.90
2363;DHT22;64265;51.664;7.626;2023-05-14T11:07:31;22.30;83.80
2363;DHT22;64265;51.664;7.626;2023-05-14T11:10:03;22.30;83.80
2363;DHT22;64265;51.664;7.626;2023-05-14T11:12:31;22.30;83.70
2363;DHT22;64265;51.664;7.626;2023-05-14T11:14:59;22.30;83.60
2363;DHT22;64265;51.664;7.626;2023-05-14T11:17:28;22.30;83.50
2363;DHT22;64265;51.664;7.626;2023-05-14T11:19:56;22.30;83.50
2363;DHT22;64265;51.664;7.626;2023-05-14T11:22:23;22.30;83.40
2363;DHT22;64265;51.664;7.626;2023-05-14T11:24:50;22.30;83.40
2363;DHT22;64265;51.664;7.626;2023-05-14T11:27:18;22.30;83.30
2363;DHT22;64265;51.664;7.626;2023-05-14T11:29:45;22.30;83.30
2363;DHT22;64265;51.664;7.626;2023-05-14T11:32:13;22.30;83.20
2363;DHT22;64265;51.664;7.626;2023-05-14T11:34:43;22.30;83.20
2363;DHT22;64265;51.664;7.626;2023-05-14T11:37:11;22.30;83.00
2363;DHT22;64265;51.664;7.626;2023-05-14T11:39:39;22.30;82.90
2363;DHT22;64265;51.664;7.626;2023-05-14T11:42:11;22.30;82.50
2363;DHT22;64265;51.664;7.626;2023-05-14T11:44:39;22.30;81.70
2363;DHT22;64265;51.664;7.626;2023-05-14T11:47:09;22.30;81.60
2363;DHT22;64265;51.664;7.626;2023-05-14T11:49:36;22.20;80.30
2363;DHT22;64265;51.664;7.626;2023-05-14T11:52:06;22.20;79.40
2363;DHT22;64265;51.664;7.626;2023-05-14T11:54:33;22.20;78.50
2363;DHT22;64265;51.664;7.626;2023-05-14T11:57:06;22.20;78.70
2363;DHT22;64265;51.664;7.626;2023-05-14T11:59:33;22.20;79.00
2363;DHT22;64265;51.664;7.626;2023-05-14T12:02:00;22.20;79.20
2363;DHT22;64265;51.664;7.626;2023-05-14T12:04:28;22.20;79.30
2363;DHT22;64265;51.664;7.626;2023-05-14T12:06:57;22.20;78.90
2363;DHT22;64265;51.664;7.626;2023-05-14T12:09:25;22.20;78.40
2363;DHT22;64265;51.664;7.626;2023-05-14T12:11:52;22.20;78.60
2363;DHT22;64265;51.664;7.626;2023-05-14T12:14:21;22.20;78.10
2363;DHT22;64265;51.664;7.626;2023-05-14T12:16:48;22.20;77.30
2363;DHT22;64265;51.664;7.626;2023-05-14T12:19:16;22.20;78.10
2363;DHT22;64265;51.664;7.626;2023-05-14T12:21:44;22.20;77.30
2363;DHT22;64265;51.664;7.626;2023-05-14T12:24:12;22.20;77.60
2363;DHT22;64265;51.664;7.626;2023-05-14T12:26:43;22.20;77.80
2363;DHT22;64265;51.664;7.626;2023-05-14T12:29:11;22.10;78.00
2363;DHT22;64265;51.664;7.626;2023-05-14T12:31:44;22.20;78.10
2363;DHT22;64265;51.664;7.626;2023-05-14T12:34:11;22.20;77.60
2363;DHT22;64265;51.664;7.626;2023-05-14T12:36:37;22.20;77.10
2363;DHT22;64265;51.664;7.626;2023-05-14T12:39:04;22.20;76.40
2363;DHT22;64265;51.664;7.626;2023-05-14T12:41:32;22.20;76.80
2363;DHT22;64265;51.664;7.626;2023-05-14T12:44:01;22.20;77.00
2363;DHT22;64265;51.664;7.626;2023-05-14T12:46:28;22.20;77.10
2363;DHT22;64265;51.664;7.626;2023-05-14T12:48:56;22.20;77.30
2363;DHT22;64265;51.664;7.626;2023-05-14T12:51:22;22.20;77.60
2363;DHT22;64265;51.664;7.626;2023-05-14T12:53:49;22.20;77.80
2363;DHT22;64265;51.664;7.626;2023-05-14T12:56:18;22.20;77.80
2363;DHT22;64265;51.664;7.626;2023-05-14T12:58:46;22.20;78.00
2363;DHT22;64265;51.664;7.626;2023-05-14T13:01:14;22.20;78.00
2363;DHT22;64265;51.664;7.626;2023-05-14T13:03:40;22.20;78.70
2363;DHT22;64265;51.664;7.626;2023-05-14T13:06:07;22.20;78.10
2363;DHT22;64265;51.664;7.626;2023-05-14T13:08:34;22.20;77.90
2363;DHT22;64265;51.664;7.626;2023-05-14T13:11:01;22.20;78.30
2363;DHT22;64265;51.664;7.626;2023-05-14T13:13:27;22.20;78.30
2363;DHT22;64265;51.664;7.626;2023-05-14T13:15:54;22.20;78.30
2363;DHT22;64265;51.664;7.626;2023-05-14T13:18:22;22.20;78.50
2363;DHT22;64265;51.664;7.626;2023-05-14T13:20:51;22.20;78.60
2363;DHT22;64265;51.664;7.626;2023-05-14T13:23:17;22.20;78.80
2363;DHT22;64265;51.664;7.626;2023-05-14T13:25:44;22.20;78.90
2363;DHT22;64265;51.664;7.626;2023-05-14T13:28:10;22.20;78.90
2363;DHT22;64265;51.664;7.626;2023-05-14T13:30:37;22.20;79.00
2363;DHT22;64265;51.664;7.626;2023-05-14T13:33:04;22.20;79.10
2363;DHT22;64265;51.664;7.626;2023-05-14T13:35:32;22.20;79.20
2363;DHT22;64265;51.664;7.626;2023-05-14T13:37:59;22.20;79.20
2363;DHT22;64265;51.664;7.626;2023-05-14T13:40:26;22.20;79.20
2363;DHT22;64265;51.664;7.626;2023-05-14T13:42:53;22.20;79.30
2363;DHT22;64265;51.664;7.626;2023-05-14T13:45:19;22.20;79.30
2363;DHT22;64265;51.664;7.626;2023-05-14T13:47:46;22.20;79.20
2363;DHT22;64265;51.664;7.626;2023-05-14T13:50:13;22.20;79.10
2363;DHT22;64265;51.664;7.626;2023-05-14T13:52:41;22.20;79.30
2363;DHT22;64265;51.664;7.626;2023-05-14T13:55:08;22.20;79.20
2363;DHT22;64265;51.664;7.626;2023-05-14T13:57:34;22.20;79.10
2363;DHT22;64265;51.664;7.626;2023-05-14T14:00:02;22.20;78.90
2363;DHT22;64265;51.664;7.626;2023-05-14T14:02:29;22.20;78.50
2363;DHT22;64265;51.664;7.626;2023-05-14T14:04:56;22.30;78.80
2363;DHT22;64265;51.664;7.626;2023-05-14T14:07:23;22.30;79.00
2363;DHT22;64265;51.664;7.626;2023-05-14T14:09:51;22.30;78.20
2363;DHT22;64265;51.664;7.626;2023-05-14T14:12:17;22.30;77.80
2363;DHT22;64265;51.664;7.626;2023-05-14T14:14:44;22.30;77.00
2363;DHT22;64265;51.664;7.626;2023-05-14T14:17:11;22.30;75.60
2363;DHT22;64265;51.664;7.626;2023-05-14T14:19:37;22.30;74.30
2363;DHT22;64265;51.664;7.626;2023-05-14T14:22:04;22.30;73.60
2363;DHT22;64265;51.664;7.626;2023-05-14T14:24:31;22.20;73.00
2363;DHT22;64265;51.664;7.626;2023-05-14T14:26:59;22.30;72.50
2363;DHT22;64265;51.664;7.626;2023-05-14T14:29:26;22.30;72.60
2363;DHT22;64265;51.664;7.626;2023-05-14T14:31:55;22.30;73.30
2363;DHT22;64265;51.664;7.626;2023-05-14T14:34:22;22.40;73.30
2363;DHT22;64265;51.664;7.626;2023-05-14T14:36:48;22.40;73.20
2363;DHT22;64265;51.664;7.626;2023-05-14T14:39:15;22.40;73.50
2363;DHT22;64265;51.664;7.626;2023-05-14T14:41:42;22.50;74.10
2363;DHT22;64265;51.664;7.626;2023-05-14T14:44:10;22.50;74.40
2363;DHT22;64265;51.664;7.626;2023-05-14T14:46:36;22.50;73.90
2363;DHT22;64265;51.664;7.626;2023-05-14T14:49:03;22.50;74.40
2363;DHT22;64265;51.664;7.626;2023-05-14T14:51:30;22.60;74.90
2363;DHT22;64265;51.664;7.626;2023-05-14T14:53:57;22.60;75.10
2363;DHT22;64265;51.664;7.626;2023-05-14T14:56:26;22.70;75.40
2363;DHT22;64265;51.664;7.626;2023-05-14T14:58:52;22.70;75.60
2363;DHT22;64265;51.664;7.626;2023-05-14T15:01:20;22.70;75.70
2363;DHT22;64265;51.664;7.626;2023-05-14T15:03:48;22.70;75.80
2363;DHT22;64265;51.664;7.626;2023-05-14T15:06:14;22.80;76.00
2363;DHT22;64265;51.664;7.626;2023-05-14T15:08:41;22.80;76.00
2363;DHT22;64265;51.664;7.626;2023-05-14T15:11:08;22.80;75.90
2363;DHT22;64265;51.664;7.626;2023-05-14T15:13:34;22.80;76.00
2363;DHT22;64265;51.664;7.626;2023-05-14T15:16:01;22.80;75.90
2363;DHT22;64265;51.664;7.626;2023-05-14T15:18:29;22.80;76.00
2363;DHT22;64265;51.664;7.626;2023-05-14T15:20:56;22.80;76.00
2363;DHT22;64265;51.664;7.626;2023-05-14T15:23:22;22.80;76.20
2363;DHT22;64265;51.664;7.626;2023-05-14T15:25:49;22.90;76.20
2363;DHT22;64265;51.664;7.626;2023-05-14T15:28:16;22.80;76.00
2363;DHT22;64265;51.664;7.626;2023-05-14T15:30:43;22.80;76.00
2363;DHT22;64265;51.664;7.626;2023-05-14T15:33:09;22.80;75.90
2363;DHT22;64265;51.664;7.626;2023-05-14T15:35:37;22.80;75.70
2363;DHT22;64265;51.664;7.626;2023-05-14T15:38:05;22.80;76.10
2363;DHT22;64265;51.664;7.626;2023-05-14T15:40:32;22.80;76.20
2363;DHT22;64265;51.664;7.626;2023-05-14T15:42:59;22.80;76.40
2363;DHT22;64265;51.664;7.626;2023-05-14T15:45:26;22.80;76.40